createdAt,value
2017-02-08T00:00:57.233Z,0
2017-02-08T00:01:57.588Z,0
2017-02-08T00:02:57.695Z,0
2017-02-08T00:03:56.863Z,0
2017-02-08T00:04:57.265Z,0
2017-02-08T00:05:57.667Z,0
2017-02-08T00:06:58.642Z,0
2017-02-08T00:07:57.180Z,0
2017-02-08T00:08:58.633Z,0
2017-02-08T00:09:57.740Z,0
2017-02-08T00:10:57.851Z,0
2017-02-08T00:11:57.697Z,0
2017-02-08T00:12:57.613Z,0
2017-02-08T00:13:57.721Z,0
2017-02-08T00:14:57.718Z,0
2017-02-08T00:15:58.076Z,0
2017-02-08T00:16:57.676Z,0
2017-02-08T00:17:57.342Z,0
2017-02-08T00:18:57.795Z,0
2017-02-08T00:19:59.069Z,0
2017-02-08T00:20:57.264Z,0
2017-02-08T00:21:58.324Z,0
2017-02-08T00:22:57.424Z,0
2017-02-08T00:23:57.777Z,0
2017-02-08T00:24:57.333Z,0
2017-02-08T00:25:57.427Z,0
2017-02-08T00:26:57.695Z,0
2017-02-08T00:27:57.779Z,0
2017-02-08T00:28:57.368Z,0
2017-02-08T00:29:57.516Z,0
2017-02-08T00:30:57.428Z,0
2017-02-08T00:31:57.730Z,0
2017-02-08T00:32:58.789Z,0
2017-02-08T00:33:57.429Z,0
2017-02-08T00:34:57.060Z,0
2017-02-08T00:35:57.852Z,0
2017-02-08T00:36:57.811Z,0
2017-02-08T00:37:57.862Z,0
2017-02-08T00:38:57.920Z,0
2017-02-08T00:39:58.086Z,0
2017-02-08T00:40:57.150Z,0
2017-02-08T00:41:57.548Z,0
2017-02-08T00:42:57.798Z,0
2017-02-08T00:43:58.668Z,0
2017-02-08T00:44:57.910Z,0
2017-02-08T00:45:57.522Z,0
2017-02-08T00:46:57.576Z,0
2017-02-08T00:47:57.925Z,0
2017-02-08T00:48:57.967Z,0
2017-02-08T00:49:57.939Z,0
2017-02-08T00:50:58.803Z,0
2017-02-08T00:51:57.560Z,0
2017-02-08T00:52:57.908Z,0
2017-02-08T00:53:57.965Z,0
2017-02-08T00:54:57.533Z,0
2017-02-08T00:55:57.134Z,0
2017-02-08T00:56:57.694Z,0
2017-02-08T00:57:57.254Z,0
2017-02-08T00:58:57.994Z,0
2017-02-08T00:59:58.051Z,0
2017-02-08T01:00:57.614Z,0
2017-02-08T01:01:59.052Z,0
2017-02-08T01:02:58.124Z,0
2017-02-08T01:03:58.634Z,0
2017-02-08T01:04:58.085Z,0
2017-02-08T01:05:58.038Z,0
2017-02-08T01:06:58.147Z,0
2017-02-08T01:07:58.005Z,0
2017-02-08T01:08:57.612Z,0
2017-02-08T01:09:57.625Z,0
2017-02-08T01:10:57.570Z,0
2017-02-08T01:11:57.631Z,0
2017-02-08T01:12:59.117Z,0
2017-02-08T01:14:12.177Z,0
2017-02-08T01:14:58.553Z,0
2017-02-08T01:15:58.005Z,0
2017-02-08T01:16:58.107Z,0
2017-02-08T01:17:58.164Z,0
2017-02-08T01:18:57.774Z,0
2017-02-08T01:19:57.732Z,0
2017-02-08T01:20:58.167Z,0
2017-02-08T01:21:58.150Z,0
2017-02-08T01:22:57.747Z,0
2017-02-08T01:23:58.054Z,0
2017-02-08T01:24:58.059Z,0
2017-02-08T01:25:59.592Z,0
2017-02-08T01:26:57.830Z,0
2017-02-08T01:27:58.775Z,0
2017-02-08T01:28:58.138Z,0
2017-02-08T01:29:57.791Z,0
2017-02-08T01:30:57.703Z,0
2017-02-08T01:31:57.810Z,0
2017-02-08T01:32:58.156Z,0
2017-02-08T01:33:58.214Z,0
2017-02-08T01:34:58.323Z,0
2017-02-08T01:35:58.226Z,0
2017-02-08T01:36:57.887Z,0
2017-02-08T01:37:58.189Z,0
2017-02-08T01:38:59.343Z,0
2017-02-08T01:39:57.958Z,0
2017-02-08T01:40:57.808Z,0
2017-02-08T01:41:58.267Z,0
2017-02-08T01:42:58.225Z,0
2017-02-08T01:43:58.376Z,0
2017-02-08T01:44:58.284Z,0
2017-02-08T01:45:58.443Z,0
2017-02-08T01:46:57.506Z,0
2017-02-08T01:47:58.206Z,0
2017-02-08T01:48:57.914Z,0
2017-02-08T01:49:59.615Z,0
2017-02-08T01:50:58.367Z,0
2017-02-08T01:51:58.280Z,0
2017-02-08T01:52:58.336Z,0
2017-02-08T01:53:57.051Z,0
2017-02-08T01:54:57.899Z,0
2017-02-08T01:55:57.903Z,0
2017-02-08T01:56:58.616Z,0
2017-02-08T01:57:58.409Z,0
2017-02-08T01:58:58.422Z,0
2017-02-08T01:59:57.639Z,0
2017-02-08T02:00:58.382Z,0
2017-02-08T02:01:57.949Z,0
2017-02-08T02:02:58.005Z,0
2017-02-08T02:03:57.915Z,0
2017-02-08T02:04:58.360Z,0
2017-02-08T02:05:57.975Z,0
2017-02-08T02:06:58.423Z,0
2017-02-08T02:07:58.985Z,0
2017-02-08T02:08:57.987Z,0
2017-02-08T02:09:58.389Z,0
2017-02-08T02:10:58.002Z,0
2017-02-08T02:11:58.453Z,0
2017-02-08T02:12:58.116Z,0
2017-02-08T02:13:58.367Z,0
2017-02-08T02:14:58.022Z,0
2017-02-08T02:15:58.478Z,0
2017-02-08T02:16:58.091Z,0
2017-02-08T02:17:58.486Z,0
2017-02-08T02:18:59.295Z,0
2017-02-08T02:19:58.401Z,0
2017-02-08T02:20:58.656Z,0
2017-02-08T02:21:58.560Z,0
2017-02-08T02:22:58.577Z,0
2017-02-08T02:23:58.525Z,0
2017-02-08T02:24:58.084Z,0
2017-02-08T02:25:58.493Z,0
2017-02-08T02:26:58.445Z,0
2017-02-08T02:27:58.102Z,0
2017-02-08T02:28:57.715Z,0
2017-02-08T02:29:59.968Z,0
2017-02-08T02:30:58.623Z,0
2017-02-08T02:31:59.382Z,0
2017-02-08T02:32:58.588Z,0
2017-02-08T02:33:58.493Z,0
2017-02-08T02:34:58.099Z,0
2017-02-08T02:35:58.254Z,0
2017-02-08T02:36:58.213Z,0
2017-02-08T02:37:58.661Z,0
2017-02-08T02:38:58.519Z,0
2017-02-08T02:39:58.190Z,0
2017-02-08T02:40:58.139Z,0
2017-02-08T02:41:58.542Z,0
2017-02-08T02:42:59.505Z,0
2017-02-08T02:43:58.511Z,0
2017-02-08T02:44:58.165Z,0
2017-02-08T02:45:58.347Z,0
2017-02-08T02:46:58.637Z,0
2017-02-08T02:47:58.629Z,0
2017-02-08T02:48:58.685Z,0
2017-02-08T02:49:58.251Z,0
2017-02-08T02:50:57.854Z,0
2017-02-08T02:51:58.704Z,0
2017-02-08T02:52:58.757Z,0
2017-02-08T02:54:00.071Z,0
2017-02-08T02:54:58.428Z,0
2017-02-08T02:55:57.887Z,0
2017-02-08T02:56:58.288Z,0
2017-02-08T02:57:58.343Z,0
2017-02-08T02:58:58.300Z,0
2017-02-08T02:59:58.408Z,0
2017-02-08T03:00:58.762Z,0
2017-02-08T03:01:58.918Z,0
2017-02-08T03:02:58.824Z,0
2017-02-08T03:03:58.443Z,0
2017-02-08T03:05:00.315Z,0
2017-02-08T03:05:58.842Z,0
2017-02-08T03:06:58.403Z,0
2017-02-08T03:07:58.699Z,0
2017-02-08T03:08:58.809Z,0
2017-02-08T03:09:58.420Z,0
2017-02-08T03:10:58.525Z,0
2017-02-08T03:11:58.873Z,0
2017-02-08T03:12:58.933Z,0
2017-02-08T03:13:58.996Z,0
2017-02-08T03:14:58.459Z,0
2017-02-08T03:15:59.052Z,0
2017-02-08T03:16:58.170Z,0
2017-02-08T03:17:59.168Z,0
2017-02-08T03:18:58.478Z,0
2017-02-08T03:19:58.141Z,0
2017-02-08T03:20:58.539Z,0
2017-02-08T03:21:58.050Z,0
2017-02-08T03:22:58.945Z,0
2017-02-08T03:23:58.801Z,0
2017-02-08T03:24:59.566Z,0
2017-02-08T03:25:58.868Z,0
2017-02-08T03:26:58.776Z,0
2017-02-08T03:27:58.883Z,0
2017-02-08T03:28:58.884Z,0
2017-02-08T03:29:58.940Z,0
2017-02-08T03:30:58.849Z,0
2017-02-08T03:31:58.528Z,0
2017-02-08T03:32:58.961Z,0
2017-02-08T03:33:58.965Z,0
2017-02-08T03:34:58.624Z,0
2017-02-08T03:35:59.878Z,0
2017-02-08T03:36:58.887Z,0
2017-02-08T03:37:59.198Z,0
2017-02-08T03:38:58.946Z,0
2017-02-08T03:39:58.955Z,0
2017-02-08T03:40:58.219Z,0
2017-02-08T03:41:58.326Z,0
2017-02-08T03:42:59.076Z,0
2017-02-08T03:43:58.633Z,0
2017-02-08T03:44:58.892Z,0
2017-02-08T03:45:59.042Z,0
2017-02-08T03:47:00.453Z,0
2017-02-08T03:47:58.311Z,0
2017-02-08T03:48:59.564Z,0
2017-02-08T03:49:59.022Z,0
2017-02-08T03:50:59.124Z,0
2017-02-08T03:51:58.684Z,0
2017-02-08T03:52:58.248Z,0
2017-02-08T03:53:59.226Z,0
2017-02-08T03:54:58.259Z,0
2017-02-08T03:55:59.102Z,0
2017-02-08T03:56:59.115Z,0
2017-02-08T03:57:58.673Z,0
2017-02-08T03:58:59.087Z,0
2017-02-08T04:00:00.181Z,0
2017-02-08T04:00:58.641Z,0
2017-02-08T04:01:59.093Z,0
2017-02-08T04:02:59.097Z,0
2017-02-08T04:03:59.156Z,0
2017-02-08T04:04:59.255Z,0
2017-02-08T04:05:59.170Z,0
2017-02-08T04:06:59.379Z,0
2017-02-08T04:07:59.186Z,0
2017-02-08T04:08:59.191Z,0
2017-02-08T04:09:58.798Z,0
2017-02-08T04:10:59.924Z,0
2017-02-08T04:11:58.711Z,0
2017-02-08T04:12:59.264Z,0
2017-02-08T04:13:59.320Z,0
2017-02-08T04:14:59.335Z,0
2017-02-08T04:15:58.937Z,0
2017-02-08T04:16:58.000Z,0
2017-02-08T04:17:59.850Z,0
2017-02-08T04:18:58.854Z,0
2017-02-08T04:19:59.163Z,0
2017-02-08T04:20:59.163Z,0
2017-02-08T04:21:58.482Z,0
2017-02-08T04:22:58.881Z,0
2017-02-08T04:23:59.235Z,0
2017-02-08T04:24:58.549Z,0
2017-02-08T04:25:58.573Z,0
2017-02-08T04:26:58.843Z,0
2017-02-08T04:27:58.930Z,0
2017-02-08T04:29:00.077Z,0
2017-02-08T04:29:58.910Z,0
2017-02-08T04:30:59.679Z,0
2017-02-08T04:31:59.337Z,0
2017-02-08T04:32:59.393Z,0
2017-02-08T04:33:59.251Z,0
2017-02-08T04:34:59.287Z,0
2017-02-08T04:35:59.365Z,0
2017-02-08T04:36:59.668Z,0
2017-02-08T04:37:59.421Z,0
2017-02-08T04:38:58.882Z,0
2017-02-08T04:40:00.284Z,0
2017-02-08T04:40:59.396Z,0
2017-02-08T04:42:00.100Z,0
2017-02-08T04:42:59.007Z,0
2017-02-08T04:43:59.316Z,0
2017-02-08T04:44:59.021Z,0
2017-02-08T04:45:58.633Z,0
2017-02-08T04:46:59.533Z,0
2017-02-08T04:47:59.337Z,0
2017-02-08T04:48:58.707Z,0
2017-02-08T04:49:59.060Z,0
2017-02-08T04:50:59.945Z,0
2017-02-08T04:51:59.462Z,0
2017-02-08T04:53:00.196Z,0
2017-02-08T04:53:59.425Z,0
2017-02-08T04:54:59.582Z,0
2017-02-08T04:55:59.492Z,0
2017-02-08T04:56:59.495Z,0
2017-02-08T04:57:59.455Z,0
2017-02-08T04:58:59.505Z,0
2017-02-08T04:59:59.512Z,0
2017-02-08T05:00:59.571Z,0
2017-02-08T05:01:59.479Z,0
2017-02-08T05:02:59.240Z,0
2017-02-08T05:04:00.546Z,0
2017-02-08T05:04:59.545Z,0
2017-02-08T05:05:59.855Z,0
2017-02-08T05:06:59.264Z,0
2017-02-08T05:07:59.615Z,0
2017-02-08T05:08:59.124Z,0
2017-02-08T05:09:59.573Z,0
2017-02-08T05:10:59.237Z,0
2017-02-08T05:11:59.198Z,0
2017-02-08T05:12:59.552Z,0
2017-02-08T05:13:59.221Z,0
2017-02-08T05:14:59.267Z,0
2017-02-08T05:15:59.665Z,0
2017-02-08T05:17:00.397Z,0
2017-02-08T05:17:59.179Z,0
2017-02-08T05:18:59.637Z,0
2017-02-08T05:19:59.249Z,0
2017-02-08T05:20:59.600Z,0
2017-02-08T05:21:59.651Z,0
2017-02-08T05:22:59.262Z,0
2017-02-08T05:23:59.517Z,0
2017-02-08T05:24:59.277Z,0
2017-02-08T05:25:59.180Z,0
2017-02-08T05:26:59.345Z,0
2017-02-08T05:28:01.053Z,0
2017-02-08T05:28:58.852Z,0
2017-02-08T05:29:59.700Z,0
2017-02-08T05:30:59.659Z,0
2017-02-08T05:31:59.720Z,0
2017-02-08T05:33:00.062Z,0
2017-02-08T05:33:59.434Z,0
2017-02-08T05:35:00.546Z,0
2017-02-08T05:35:59.690Z,0
2017-02-08T05:36:59.739Z,0
2017-02-08T05:37:59.651Z,0
2017-02-08T05:38:59.419Z,0
2017-02-08T05:39:59.372Z,0
2017-02-08T05:41:00.074Z,0
2017-02-08T05:42:00.087Z,0
2017-02-08T05:43:00.088Z,0
2017-02-08T05:43:59.795Z,0
2017-02-08T05:44:59.797Z,0
2017-02-08T05:46:00.903Z,0
2017-02-08T05:46:59.316Z,0
2017-02-08T05:48:00.221Z,0
2017-02-08T05:48:59.926Z,0
2017-02-08T05:49:59.827Z,0
2017-02-08T05:50:59.440Z,0
2017-02-08T05:51:59.395Z,0
2017-02-08T05:52:59.107Z,0
2017-02-08T05:53:59.856Z,0
2017-02-08T05:54:59.908Z,0
2017-02-08T05:55:59.770Z,0
2017-02-08T05:57:00.828Z,0
2017-02-08T05:57:59.982Z,0
2017-02-08T05:59:00.842Z,0
2017-02-08T05:59:59.644Z,0
2017-02-08T06:01:00.008Z,0
2017-02-08T06:01:59.511Z,0
2017-02-08T06:02:59.125Z,0
2017-02-08T06:03:59.573Z,0
2017-02-08T06:04:59.869Z,0
2017-02-08T06:05:59.884Z,0
2017-02-08T06:07:00.036Z,0
2017-02-08T06:07:59.499Z,0
2017-02-08T06:09:00.052Z,0
2017-02-08T06:10:01.153Z,0
2017-02-08T06:10:59.618Z,0
2017-02-08T06:12:00.108Z,0
2017-02-08T06:13:00.075Z,0
2017-02-08T06:14:00.184Z,0
2017-02-08T06:15:00.043Z,0
2017-02-08T06:15:59.603Z,0
2017-02-08T06:16:59.653Z,0
2017-02-08T06:17:59.656Z,0
2017-02-08T06:18:59.522Z,0
2017-02-08T06:20:00.422Z,0
2017-02-08T06:21:01.650Z,0
2017-02-08T06:22:00.087Z,0
2017-02-08T06:23:00.890Z,0
2017-02-08T06:23:59.943Z,0
2017-02-08T06:25:00.302Z,0
2017-02-08T06:26:00.008Z,0
2017-02-08T06:27:00.161Z,0
2017-02-08T06:28:00.017Z,0
2017-02-08T06:29:00.577Z,0
2017-02-08T06:30:00.394Z,0
2017-02-08T06:31:03.407Z,0
2017-02-08T06:32:00.093Z,0
2017-02-08T06:33:00.059Z,0
2017-02-08T06:34:00.927Z,0
2017-02-08T06:34:59.768Z,0
2017-02-08T06:36:00.026Z,0
2017-02-08T06:37:00.128Z,0
2017-02-08T06:37:59.738Z,0
2017-02-08T06:39:00.343Z,0
2017-02-08T06:40:00.142Z,0
2017-02-08T06:41:00.806Z,0
2017-02-08T06:42:00.157Z,0
2017-02-08T06:42:59.771Z,0
2017-02-08T06:44:00.226Z,0
2017-02-08T06:44:59.730Z,0
2017-02-08T06:46:00.184Z,0
2017-02-08T06:47:00.493Z,0
2017-02-08T06:48:00.146Z,0
2017-02-08T06:49:00.204Z,0
2017-02-08T06:49:59.861Z,0
2017-02-08T06:50:59.423Z,0
2017-02-08T06:52:01.444Z,0
2017-02-08T06:52:59.785Z,0
2017-02-08T06:54:00.732Z,0
2017-02-08T06:54:59.448Z,0
2017-02-08T06:56:00.001Z,0
2017-02-08T06:56:59.458Z,0
2017-02-08T06:58:00.513Z,0
2017-02-08T06:58:59.867Z,0
2017-02-08T07:00:00.373Z,0
2017-02-08T07:01:00.315Z,0
2017-02-08T07:02:00.232Z,0
2017-02-08T07:02:59.796Z,0
2017-02-08T07:04:00.005Z,0
2017-02-08T07:05:01.431Z,0
2017-02-08T07:06:00.314Z,0
2017-02-08T07:07:00.818Z,0
2017-02-08T07:08:00.229Z,0
2017-02-08T07:08:59.933Z,0
2017-02-08T07:10:00.388Z,0
2017-02-08T07:11:00.292Z,0
2017-02-08T07:12:00.352Z,0
2017-02-08T07:12:59.569Z,0
2017-02-08T07:14:00.312Z,0
2017-02-08T07:15:00.415Z,0
2017-02-08T07:15:59.977Z,0
2017-02-08T07:17:00.379Z,0
2017-02-08T07:18:01.337Z,0
2017-02-08T07:19:00.346Z,0
2017-02-08T07:19:59.557Z,0
2017-02-08T07:20:59.909Z,0
2017-02-08T07:22:00.511Z,0
2017-02-08T07:23:00.368Z,0
2017-02-08T07:23:59.638Z,0
2017-02-08T07:25:00.480Z,0
2017-02-08T07:26:00.593Z,0
2017-02-08T07:27:00.447Z,0
2017-02-08T07:28:00.056Z,0
2017-02-08T07:29:00.508Z,0
2017-02-08T07:30:00.468Z,0
2017-02-08T07:31:00.421Z,0
2017-02-08T07:32:00.475Z,0
2017-02-08T07:33:00.134Z,0
2017-02-08T07:34:00.542Z,0
2017-02-08T07:35:00.000Z,0
2017-02-08T07:36:01.452Z,0
2017-02-08T07:36:59.777Z,0
2017-02-08T07:38:00.763Z,0
2017-02-08T07:39:00.024Z,0
2017-02-08T07:40:00.522Z,0
2017-02-08T07:41:00.037Z,5
2017-02-08T07:42:00.545Z,5
2017-02-08T07:43:00.496Z,5
2017-02-08T07:44:01.054Z,5
2017-02-08T07:45:00.112Z,5
2017-02-08T07:46:00.613Z,5
2017-02-08T07:47:01.920Z,5
2017-02-08T07:48:00.184Z,5
2017-02-08T07:49:01.235Z,5
2017-02-08T07:50:00.096Z,5
2017-02-08T07:51:00.607Z,5
2017-02-08T07:52:00.654Z,5
2017-02-08T07:53:00.510Z,5
2017-02-08T07:54:00.615Z,5
2017-02-08T07:55:00.624Z,5
2017-02-08T07:56:00.676Z,5
2017-02-08T07:57:00.635Z,5
2017-02-08T07:58:00.245Z,5
2017-02-08T07:59:00.656Z,5
2017-02-08T08:00:02.115Z,5
2017-02-08T08:01:00.269Z,5
2017-02-08T08:02:00.323Z,5
2017-02-08T08:03:00.627Z,5
2017-02-08T08:03:59.925Z,5
2017-02-08T08:05:00.699Z,5
2017-02-08T08:05:59.860Z,5
2017-02-08T08:06:59.937Z,10
2017-02-08T08:08:00.660Z,10
2017-02-08T08:09:01.118Z,10
2017-02-08T08:10:00.671Z,10
2017-02-08T08:11:00.744Z,10
2017-02-08T08:12:00.735Z,10
2017-02-08T08:13:00.648Z,10
2017-02-08T08:14:00.752Z,10
2017-02-08T08:15:00.958Z,10
2017-02-08T08:16:00.719Z,10
2017-02-08T08:17:00.676Z,10
2017-02-08T08:18:00.729Z,10
2017-02-08T08:19:00.836Z,10
2017-02-08T08:20:01.544Z,10
2017-02-08T08:21:00.801Z,10
2017-02-08T08:22:00.857Z,10
2017-02-08T08:23:00.019Z,10
2017-02-08T08:24:00.379Z,10
2017-02-08T08:25:00.827Z,10
2017-02-08T08:26:00.440Z,10
2017-02-08T08:27:00.744Z,10
2017-02-08T08:28:00.898Z,10
2017-02-08T08:29:00.460Z,10
2017-02-08T08:30:00.911Z,10
2017-02-08T08:31:02.130Z,10
2017-02-08T08:32:00.983Z,10
2017-02-08T08:33:01.432Z,10
2017-02-08T08:34:00.841Z,15
2017-02-08T08:35:00.847Z,15
2017-02-08T08:36:01.006Z,15
2017-02-08T08:37:00.862Z,15
2017-02-08T08:38:00.080Z,15
2017-02-08T08:39:00.581Z,15
2017-02-08T08:40:00.738Z,15
2017-02-08T08:41:00.547Z,15
2017-02-08T08:42:00.655Z,15
2017-02-08T08:43:00.511Z,15
2017-02-08T08:44:02.194Z,15
2017-02-08T08:45:00.969Z,15
2017-02-08T08:46:01.137Z,15
2017-02-08T08:47:01.046Z,15
2017-02-08T08:48:01.099Z,15
2017-02-08T08:49:00.556Z,15
2017-02-08T08:50:00.216Z,15
2017-02-08T08:51:01.567Z,15
2017-02-08T08:52:01.070Z,15
2017-02-08T08:53:00.784Z,20
2017-02-08T08:54:01.088Z,20
2017-02-08T08:55:02.714Z,20
2017-02-08T08:56:00.312Z,20
2017-02-08T08:57:00.665Z,20
2017-02-08T08:58:01.029Z,20
2017-02-08T08:59:00.677Z,20
2017-02-08T09:00:00.343Z,20
2017-02-08T09:01:01.142Z,20
2017-02-08T09:02:01.556Z,20
2017-02-08T09:03:00.707Z,20
2017-02-08T09:04:01.270Z,20
2017-02-08T09:05:00.671Z,20
2017-02-08T09:06:00.729Z,20
2017-02-08T09:07:01.288Z,20
2017-02-08T09:08:01.238Z,20
2017-02-08T09:09:01.145Z,20
2017-02-08T09:10:01.105Z,20
2017-02-08T09:11:01.142Z,20
2017-02-08T09:12:01.122Z,20
2017-02-08T09:13:01.571Z,25
2017-02-08T09:14:01.235Z,25
2017-02-08T09:15:01.794Z,25
2017-02-08T09:16:00.767Z,25
2017-02-08T09:17:01.203Z,25
2017-02-08T09:18:01.260Z,25
2017-02-08T09:19:00.878Z,20
2017-02-08T09:20:01.276Z,20
2017-02-08T09:21:01.345Z,20
2017-02-08T09:22:01.243Z,20
2017-02-08T09:23:01.560Z,20
2017-02-08T09:24:01.172Z,20
2017-02-08T09:25:01.319Z,20
2017-02-08T09:26:02.279Z,20
2017-02-08T09:27:00.836Z,20
2017-02-08T09:28:01.546Z,20
2017-02-08T09:29:00.905Z,20
2017-02-08T09:30:01.406Z,20
2017-02-08T09:31:01.312Z,20
2017-02-08T09:32:01.367Z,20
2017-02-08T09:33:00.885Z,20
2017-02-08T09:34:01.635Z,20
2017-02-08T09:35:01.343Z,20
2017-02-08T09:36:00.911Z,20
2017-02-08T09:37:02.888Z,20
2017-02-08T09:38:01.465Z,20
2017-02-08T09:39:02.127Z,20
2017-02-08T09:40:01.378Z,25
2017-02-08T09:41:01.433Z,25
2017-02-08T09:42:01.051Z,25
2017-02-08T09:43:01.402Z,25
2017-02-08T09:44:00.914Z,25
2017-02-08T09:45:00.973Z,25
2017-02-08T09:46:00.986Z,25
2017-02-08T09:47:01.042Z,25
2017-02-08T09:48:01.095Z,25
2017-02-08T09:49:01.001Z,25
2017-02-08T09:50:02.506Z,25
2017-02-08T09:51:01.521Z,25
2017-02-08T09:52:01.418Z,25
2017-02-08T09:53:00.738Z,25
2017-02-08T09:54:01.433Z,25
2017-02-08T09:55:01.544Z,25
2017-02-08T09:56:01.202Z,25
2017-02-08T09:57:02.060Z,25
2017-02-08T09:58:01.465Z,25
2017-02-08T09:59:01.374Z,25
2017-02-08T10:00:01.183Z,25
2017-02-08T10:01:01.634Z,25
2017-02-08T10:02:01.495Z,25
2017-02-08T10:03:01.058Z,25
2017-02-08T10:04:01.159Z,25
2017-02-08T10:05:01.565Z,25
2017-02-08T10:06:01.572Z,25
2017-02-08T10:07:00.739Z,25
2017-02-08T10:08:02.536Z,25
2017-02-08T10:09:01.200Z,25
2017-02-08T10:10:01.811Z,25
2017-02-08T10:11:02.613Z,25
2017-02-08T10:12:01.625Z,25
2017-02-08T10:13:01.719Z,25
2017-02-08T10:14:01.274Z,25
2017-02-08T10:15:01.735Z,25
2017-02-08T10:16:01.298Z,30
2017-02-08T10:17:01.705Z,30
2017-02-08T10:18:01.268Z,30
2017-02-08T10:19:02.644Z,30
2017-02-08T10:20:01.281Z,30
2017-02-08T10:21:02.939Z,30
2017-02-08T10:22:01.743Z,30
2017-02-08T10:23:01.802Z,30
2017-02-08T10:24:01.656Z,30
2017-02-08T10:25:01.664Z,30
2017-02-08T10:26:01.669Z,30
2017-02-08T10:27:01.385Z,30
2017-02-08T10:28:01.703Z,30
2017-02-08T10:29:01.349Z,30
2017-02-08T10:30:01.903Z,35
2017-02-08T10:31:01.461Z,35
2017-02-08T10:32:01.661Z,35
2017-02-08T10:33:01.778Z,35
2017-02-08T10:34:02.390Z,35
2017-02-08T10:35:01.396Z,35
2017-02-08T10:36:02.150Z,35
2017-02-08T10:37:01.801Z,35
2017-02-08T10:38:01.414Z,35
2017-02-08T10:39:01.820Z,35
2017-02-08T10:40:01.338Z,35
2017-02-08T10:41:02.041Z,35
2017-02-08T10:42:01.843Z,40
2017-02-08T10:43:01.747Z,40
2017-02-08T10:44:01.906Z,40
2017-02-08T10:45:02.669Z,40
2017-02-08T10:46:01.824Z,40
2017-02-08T10:47:01.481Z,40
2017-02-08T10:48:01.043Z,40
2017-02-08T10:49:01.944Z,40
2017-02-08T10:50:01.898Z,40
2017-02-08T10:51:01.420Z,40
2017-02-08T10:52:01.421Z,40
2017-02-08T10:53:01.184Z,40
2017-02-08T10:54:02.909Z,40
2017-02-08T10:55:01.920Z,40
2017-02-08T10:56:02.301Z,40
2017-02-08T10:57:01.958Z,40
2017-02-08T10:58:01.222Z,40
2017-02-08T10:59:02.022Z,40
2017-02-08T11:00:01.529Z,40
2017-02-08T11:01:01.191Z,40
2017-02-08T11:02:01.544Z,40
2017-02-08T11:03:01.955Z,40
2017-02-08T11:04:02.310Z,40
2017-02-08T11:05:03.290Z,40
2017-02-08T11:06:02.018Z,40
2017-02-08T11:07:02.180Z,40
2017-02-08T11:08:01.641Z,40
2017-02-08T11:09:01.248Z,40
2017-02-08T11:10:01.658Z,35
2017-02-08T11:11:02.259Z,35
2017-02-08T11:12:02.016Z,35
2017-02-08T11:13:02.124Z,35
2017-02-08T11:14:02.377Z,35
2017-02-08T11:15:01.743Z,35
2017-02-08T11:16:01.654Z,35
2017-02-08T11:17:01.365Z,35
2017-02-08T11:18:02.172Z,35
2017-02-08T11:19:02.115Z,35
2017-02-08T11:20:03.407Z,35
2017-02-08T11:21:02.036Z,35
2017-02-08T11:22:02.090Z,35
2017-02-08T11:23:02.247Z,35
2017-02-08T11:24:02.162Z,35
2017-02-08T11:25:01.378Z,35
2017-02-08T11:26:02.168Z,35
2017-02-08T11:27:03.480Z,35
2017-02-08T11:28:01.839Z,35
2017-02-08T11:29:01.508Z,35
2017-02-08T11:30:01.750Z,35
2017-02-08T11:31:03.310Z,35
2017-02-08T11:32:01.921Z,35
2017-02-08T11:33:02.235Z,35
2017-02-08T11:34:01.835Z,35
2017-02-08T11:35:02.193Z,35
2017-02-08T11:36:02.248Z,35
2017-02-08T11:37:02.302Z,35
2017-02-08T11:38:02.371Z,35
2017-02-08T11:39:01.139Z,35
2017-02-08T11:40:02.326Z,35
2017-02-08T11:41:02.334Z,35
2017-02-08T11:42:03.603Z,35
2017-02-08T11:43:02.249Z,35
2017-02-08T11:44:30.926Z,35
2017-02-08T11:45:02.312Z,35
2017-02-08T11:46:01.973Z,35
2017-02-08T11:47:02.329Z,35
2017-02-08T11:48:01.891Z,35
2017-02-08T11:49:01.996Z,35
2017-02-08T11:50:01.907Z,35
2017-02-08T11:51:02.464Z,35
2017-02-08T11:52:01.723Z,35
2017-02-08T11:53:03.182Z,35
2017-02-08T11:54:02.685Z,35
2017-02-08T11:55:02.338Z,35
2017-02-08T11:56:02.345Z,35
2017-02-08T11:57:01.223Z,35
2017-02-08T11:58:01.673Z,35
2017-02-08T11:59:02.418Z,35
2017-02-08T12:00:02.526Z,35
2017-02-08T12:01:02.383Z,35
2017-02-08T12:02:02.495Z,35
2017-02-08T12:03:02.405Z,35
2017-02-08T12:04:03.361Z,35
2017-02-08T12:05:01.700Z,35
2017-02-08T12:06:02.024Z,35
2017-02-08T12:07:02.083Z,35
2017-02-08T12:08:02.135Z,35
2017-02-08T12:09:02.421Z,35
2017-02-08T12:10:02.604Z,35
2017-02-08T12:11:02.611Z,35
2017-02-08T12:12:02.512Z,35
2017-02-08T12:13:02.073Z,35
2017-02-08T12:14:02.530Z,35
2017-02-08T12:15:03.236Z,35
2017-02-08T12:16:02.549Z,35
2017-02-08T12:17:02.552Z,35
2017-02-08T12:18:02.510Z,35
2017-02-08T12:19:02.217Z,35
2017-02-08T12:20:02.623Z,35
2017-02-08T12:21:02.581Z,35
2017-02-08T12:22:02.136Z,35
2017-02-08T12:23:02.645Z,35
2017-02-08T12:24:02.553Z,35
2017-02-08T12:25:02.611Z,35
2017-02-08T12:26:03.066Z,35
2017-02-08T12:27:02.179Z,35
2017-02-08T12:28:04.205Z,35
2017-02-08T12:29:02.603Z,35
2017-02-08T12:30:02.695Z,35
2017-02-08T12:31:02.601Z,35
2017-02-08T12:32:03.014Z,35
2017-02-08T12:33:02.323Z,35
2017-02-08T12:34:02.232Z,35
2017-02-08T12:35:02.684Z,35
2017-02-08T12:36:02.801Z,35
2017-02-08T12:37:03.003Z,35
2017-02-08T12:38:02.661Z,35
2017-02-08T12:39:04.084Z,35
2017-02-08T12:40:02.670Z,35
2017-02-08T12:41:02.881Z,35
2017-02-08T12:42:02.334Z,35
2017-02-08T12:43:02.644Z,35
2017-02-08T12:44:02.714Z,35
2017-02-08T12:45:02.311Z,35
2017-02-08T12:46:02.369Z,35
2017-02-08T12:47:02.770Z,35
2017-02-08T12:48:02.678Z,35
2017-02-08T12:49:01.598Z,35
2017-02-08T12:50:03.995Z,35
2017-02-08T12:51:02.404Z,35
2017-02-08T12:52:02.758Z,35
2017-02-08T12:53:02.576Z,35
2017-02-08T12:54:02.034Z,35
2017-02-08T12:55:02.828Z,35
2017-02-08T12:56:02.837Z,35
2017-02-08T12:57:02.698Z,35
2017-02-08T12:58:02.850Z,35
2017-02-08T12:59:02.483Z,35
2017-02-08T13:00:02.924Z,35
2017-02-08T13:01:03.949Z,35
2017-02-08T13:02:02.139Z,35
2017-02-08T13:03:02.886Z,35
2017-02-08T13:04:02.505Z,35
2017-02-08T13:05:02.947Z,35
2017-02-08T13:06:03.017Z,35
2017-02-08T13:07:02.473Z,35
2017-02-08T13:08:02.820Z,35
2017-02-08T13:09:02.928Z,35
2017-02-08T13:10:02.988Z,35
2017-02-08T13:11:02.994Z,35
2017-02-08T13:12:03.970Z,35
2017-02-08T13:13:02.958Z,35
2017-02-08T13:14:02.869Z,35
2017-02-08T13:15:02.645Z,35
2017-02-08T13:16:02.932Z,35
2017-02-08T13:17:02.886Z,35
2017-02-08T13:18:02.901Z,35
2017-02-08T13:19:02.954Z,35
2017-02-08T13:20:02.993Z,35
2017-02-08T13:21:03.116Z,35
2017-02-08T13:22:02.975Z,35
2017-02-08T13:23:04.092Z,35
2017-02-08T13:24:02.992Z,35
2017-02-08T13:25:03.046Z,35
2017-02-08T13:26:02.674Z,35
2017-02-08T13:27:02.619Z,35
2017-02-08T13:28:03.070Z,35
2017-02-08T13:29:02.733Z,35
2017-02-08T13:30:03.034Z,35
2017-02-08T13:31:03.040Z,35
2017-02-08T13:32:02.704Z,35
2017-02-08T13:33:02.661Z,35
2017-02-08T13:34:03.666Z,35
2017-02-08T13:35:02.723Z,35
2017-02-08T13:36:03.123Z,35
2017-02-08T13:37:03.381Z,35
2017-02-08T13:38:04.153Z,35
2017-02-08T13:39:02.707Z,35
2017-02-08T13:40:03.155Z,35
2017-02-08T13:41:03.118Z,35
2017-02-08T13:42:02.730Z,35
2017-02-08T13:43:02.934Z,35
2017-02-08T13:44:03.235Z,35
2017-02-08T13:45:03.945Z,35
2017-02-08T13:46:03.304Z,35
2017-02-08T13:47:02.817Z,35
2017-02-08T13:48:02.380Z,35
2017-02-08T13:49:04.133Z,35
2017-02-08T13:50:03.183Z,35
2017-02-08T13:51:02.794Z,35
2017-02-08T13:52:03.195Z,35
2017-02-08T13:53:03.206Z,35
2017-02-08T13:54:02.471Z,35
2017-02-08T13:55:02.875Z,35
2017-02-08T13:56:04.078Z,35
2017-02-08T13:57:03.196Z,35
2017-02-08T13:58:02.448Z,35
2017-02-08T13:59:03.253Z,35
2017-02-08T14:00:04.122Z,35
2017-02-08T14:01:03.312Z,35
2017-02-08T14:02:03.228Z,35
2017-02-08T14:03:02.885Z,35
2017-02-08T14:04:03.235Z,35
2017-02-08T14:05:02.894Z,35
2017-02-08T14:06:03.347Z,35
2017-02-08T14:07:03.255Z,35
2017-02-08T14:08:02.930Z,35
2017-02-08T14:09:04.597Z,35
2017-02-08T14:10:03.688Z,35
2017-02-08T14:11:03.988Z,35
2017-02-08T14:12:03.843Z,35
2017-02-08T14:13:02.956Z,35
2017-02-08T14:14:03.409Z,35
2017-02-08T14:15:03.638Z,30
2017-02-08T14:16:03.323Z,30
2017-02-08T14:17:02.593Z,30
2017-02-08T14:18:03.492Z,30
2017-02-08T14:19:03.347Z,30
2017-02-08T14:20:04.757Z,30
2017-02-08T14:21:03.458Z,30
2017-02-08T14:22:03.627Z,30
2017-02-08T14:23:03.282Z,30
2017-02-08T14:24:04.379Z,30
2017-02-08T14:25:03.510Z,30
2017-02-08T14:26:03.599Z,30
2017-02-08T14:27:03.561Z,30
2017-02-08T14:28:02.923Z,25
2017-02-08T14:29:03.571Z,25
2017-02-08T14:30:03.525Z,25
2017-02-08T14:31:04.004Z,25
2017-02-08T14:41:46.911Z,25
2017-02-08T14:41:54.387Z,20